<?xml version='1.0' encoding='UTF-8'?><gpx version="1.1" creator="JPX - https://github.com/jenetics/jpx" xmlns="http://www.topografix.com/GPX/1/1"><trk><trkseg><trkpt lat="44.428008" lon="8.7901556"><ele>13.857142857142858</ele><time>2026-04-07T09:34:21.67Z</time></trkpt><trkpt lat="44.4279474" lon="8.790186"><ele>13.714285714285715</ele><time>2026-04-07T09:34:25.355Z</time></trkpt><trkpt lat="44.4278826" lon="8.7902553"><ele>13.571428571428571</ele><time>2026-04-07T09:34:29.441Z</time></trkpt><trkpt lat="44.4278146" lon="8.7902829"><ele>13.428571428571429</ele><time>2026-04-07T09:34:34.442Z</time></trkpt><trkpt lat="44.4277504" lon="8.7902299"><ele>13.285714285714286</ele><time>2026-04-07T09:34:38.157Z</time></trkpt><trkpt lat="44.4276775" lon="8.7902089"><ele>13.142857142857142</ele><time>2026-04-07T09:34:42.032Z</time></trkpt><trkpt lat="44.4276129" lon="8.7902096"><ele>13.0</ele><time>2026-04-07T09:34:46.441Z</time></trkpt><trkpt lat="44.4275434" lon="8.7902091"><ele>13.0</ele><time>2026-04-07T09:34:51.441Z</time></trkpt><trkpt lat="44.4274716" lon="8.7901949"><ele>13.0</ele><time>2026-04-07T09:34:57.441Z</time></trkpt><trkpt lat="44.4274072" lon="8.7901507"><ele>13.0</ele><time>2026-04-07T09:35:09.441Z</time></trkpt><trkpt lat="44.4273406" lon="8.7901121"><ele>13.0</ele><time>2026-04-07T09:35:12.442Z</time></trkpt><trkpt lat="44.4272673" lon="8.7900723"><ele>13.0</ele><time>2026-04-07T09:35:18.415Z</time></trkpt><trkpt lat="44.4271955" lon="8.7900374"><ele>13.0</ele><time>2026-04-07T09:35:24.333Z</time></trkpt><trkpt lat="44.4271302" lon="8.7900062"><ele>13.0</ele><time>2026-04-07T09:35:28.38Z</time></trkpt><trkpt lat="44.4270611" lon="8.7899887"><ele>8.0</ele><time>2026-04-07T09:35:35.441Z</time></trkpt><trkpt lat="44.4269973" lon="8.7899792"><ele>8.0</ele><time>2026-04-07T09:35:45.442Z</time></trkpt><trkpt lat="44.4269307" lon="8.7900293"><ele>8.0</ele><time>2026-04-07T09:35:48.441Z</time></trkpt><trkpt lat="44.4268515" lon="8.7900202"><ele>8.0</ele><time>2026-04-07T09:35:54.441Z</time></trkpt></trkseg></trk></gpx>